Time;durP1;ratioP1;P1;durP2;ratioP2;P2;SDS_P1;SDS_P2;PMS_P1;PMS_P2;Temp;Humidity;BMP_temperature;BMP_pressure;BME280_temperature;BME280_humidity;BME280_pressure;Samples;Min_cycle;Max_cycle;Signal;HPM_P1;HPM_P2
2023/03/22 00:01:33;;;;;;;16.00;8.18;;;13.10;99.90;;;;;;4935173;29;20492;-77
2023/03/22 00:03:59;;;;;;;17.70;9.35;;;13.10;99.90;;;;;;4924981;29;20038;-77
2023/03/22 00:06:25;;;;;;;15.88;8.40;;;13.10;99.90;;;;;;4931050;29;20106;-77
2023/03/22 00:08:52;;;;;;;14.13;8.77;;;12.90;99.90;;;;;;4931287;29;20488;-77
2023/03/22 00:11:20;;;;;;;14.00;8.93;;;13.00;99.90;;;;;;4926467;29;20088;-77
2023/03/22 00:13:46;;;;;;;13.23;8.00;;;13.00;99.90;;;;;;4928158;29;20055;-77
2023/03/22 00:16:13;;;;;;;15.80;8.80;;;13.00;99.90;;;;;;4934520;29;20094;-77
2023/03/22 00:18:39;;;;;;;14.38;9.38;;;13.00;99.90;;;;;;4927732;29;20036;-77
2023/03/22 00:21:09;;;;;;;16.40;9.52;;;13.00;99.90;;;;;;4930431;29;20020;-77
2023/03/22 00:23:35;;;;;;;19.70;9.40;;;12.90;99.90;;;;;;4933329;29;20031;-77
2023/03/22 00:26:02;;;;;;;15.73;9.15;;;12.90;99.90;;;;;;4934251;29;20119;-77
2023/03/22 00:28:27;;;;;;;17.25;9.68;;;12.90;99.90;;;;;;4933999;29;20126;-77
2023/03/22 00:30:55;;;;;;;18.00;11.20;;;12.80;99.90;;;;;;4940093;28;20458;-77
2023/03/22 00:33:21;;;;;;;15.85;10.45;;;12.90;99.90;;;;;;4925955;29;20028;-77
2023/03/22 00:35:52;;;;;;;17.13;10.38;;;12.90;99.90;;;;;;4931809;29;20039;-77
2023/03/22 00:38:18;;;;;;;20.02;11.48;;;12.90;99.90;;;;;;4924432;29;20046;-77
2023/03/22 00:40:43;;;;;;;20.05;12.65;;;12.90;99.90;;;;;;4933862;29;20114;-77
2023/03/22 00:43:09;;;;;;;16.88;12.27;;;12.90;99.90;;;;;;4928611;29;20031;-77
2023/03/22 00:45:39;;;;;;;20.90;12.65;;;12.90;99.90;;;;;;4926322;29;20495;-76
2023/03/22 00:48:09;;;;;;;20.15;12.00;;;12.90;99.90;;;;;;4929891;29;20028;-77
2023/03/22 00:50:36;;;;;;;20.92;11.77;;;12.90;99.90;;;;;;4926290;29;20035;-77
2023/03/22 00:53:03;;;;;;;20.38;12.73;;;12.90;99.90;;;;;;4927900;29;20381;-77
2023/03/22 00:55:28;;;;;;;19.77;13.43;;;12.80;99.90;;;;;;4936125;29;20035;-77
2023/03/22 00:57:54;;;;;;;18.00;11.77;;;12.80;99.90;;;;;;4930253;29;20038;-77
2023/03/22 01:00:20;;;;;;;19.50;13.13;;;12.70;99.90;;;;;;4930517;29;20047;-76
2023/03/22 01:02:45;;;;;;;17.17;13.20;;;12.60;99.90;;;;;;4931640;29;20027;-76
2023/03/22 01:05:14;;;;;;;19.85;13.50;;;12.60;99.90;;;;;;4929183;29;20473;-76
2023/03/22 01:07:43;;;;;;;18.77;11.98;;;12.70;99.90;;;;;;4937915;29;20028;-76
2023/03/22 01:10:10;;;;;;;17.00;11.38;;;12.70;99.90;;;;;;4929953;29;20564;-76
2023/03/22 01:12:36;;;;;;;23.13;12.43;;;12.60;99.90;;;;;;4929299;29;20047;-76
2023/03/22 01:15:03;;;;;;;15.38;11.50;;;12.60;99.90;;;;;;4926897;29;20024;-77
2023/03/22 01:17:29;;;;;;;18.52;12.00;;;12.60;99.90;;;;;;4926136;29;20064;-76
2023/03/22 01:19:55;;;;;;;19.45;12.27;;;12.60;99.90;;;;;;4925759;29;20068;-76
2023/03/22 01:22:20;;;;;;;16.90;11.70;;;12.50;99.90;;;;;;4935472;28;20028;-76
2023/03/22 01:24:48;;;;;;;18.33;12.32;;;12.50;99.90;;;;;;4926786;29;20060;-76
2023/03/22 01:27:14;;;;;;;20.88;11.93;;;12.50;99.90;;;;;;4931105;29;20064;-76
2023/03/22 01:29:39;;;;;;;14.38;11.07;;;12.50;99.90;;;;;;4929727;29;20078;-76
2023/03/22 01:32:05;;;;;;;15.18;10.65;;;12.50;99.90;;;;;;4928974;29;20026;-76
2023/03/22 01:34:31;;;;;;;18.92;10.65;;;12.40;99.90;;;;;;4955642;28;20038;-76
2023/03/22 01:36:56;;;;;;;14.63;10.32;;;12.40;99.90;;;;;;4920853;29;20094;-76
2023/03/22 01:39:23;;;;;;;14.98;10.57;;;12.40;99.90;;;;;;4926552;29;20036;-76
2023/03/22 01:41:49;;;;;;;14.80;10.15;;;12.40;99.90;;;;;;4923962;29;20032;-77
2023/03/22 01:44:16;;;;;;;12.27;9.52;;;12.30;99.90;;;;;;4927767;29;20135;-76
2023/03/22 01:46:44;;;;;;;15.23;10.38;;;12.30;99.90;;;;;;4929678;29;20035;-76
2023/03/22 01:49:15;;;;;;;15.93;9.38;;;12.30;99.90;;;;;;4929887;29;20039;-76
2023/03/22 01:51:44;;;;;;;13.30;9.52;;;12.20;99.90;;;;;;4926187;29;20090;-76
2023/03/22 01:54:36;;;;;;;18.77;9.80;;;12.20;99.90;;;;;;4926006;29;20044;-76
2023/03/22 01:57:02;;;;;;;17.13;10.45;;;12.20;99.90;;;;;;4922787;29;20107;-78
2023/03/22 01:59:29;;;;;;;12.43;9.10;;;12.20;99.90;;;;;;4928760;29;20032;-76
2023/03/22 02:01:58;;;;;;;14.30;8.32;;;12.10;99.90;;;;;;4931502;29;20105;-76
2023/03/22 02:04:32;;;;;;;14.13;8.40;;;12.10;99.90;;;;;;4932242;29;20054;-76
2023/03/22 02:07:08;;;;;;;18.95;8.57;;;12.10;99.90;;;;;;4927103;29;20023;-76
2023/03/22 02:09:40;;;;;;;9.15;7.32;;;12.10;99.90;;;;;;4931440;29;20467;-76
2023/03/22 02:12:32;;;;;;;12.70;8.05;;;12.10;99.90;;;;;;4927653;29;20099;-76
2023/03/22 02:15:09;;;;;;;12.75;7.40;;;12.10;99.90;;;;;;4944724;28;20023;-77
2023/03/22 02:17:45;;;;;;;12.25;7.55;;;12.10;99.90;;;;;;4925746;29;20544;-76
2023/03/22 02:20:54;;;;;;;16.27;8.20;;;12.10;99.90;;;;;;4924333;29;20035;-76
2023/03/22 02:23:44;;;;;;;10.75;7.72;;;12.10;99.90;;;;;;4931074;29;20508;-76
2023/03/22 02:26:34;;;;;;;14.43;7.50;;;12.10;99.90;;;;;;4929591;29;20044;-76
2023/03/22 02:29:16;;;;;;;12.68;8.23;;;12.00;99.90;;;;;;4925875;29;20401;-76
2023/03/22 02:32:02;;;;;;;13.07;7.57;;;12.10;99.90;;;;;;4921685;29;20477;-76
2023/03/22 02:34:28;;;;;;;16.10;7.10;;;12.10;99.90;;;;;;4929295;29;20523;-76
2023/03/22 02:37:32;;;;;;;11.90;7.30;;;12.00;99.90;;;;;;4925580;29;20064;-76
2023/03/22 02:40:23;;;;;;;11.98;6.20;;;11.90;99.90;;;;;;4927022;29;20040;-76
2023/03/22 02:43:12;;;;;;;9.25;6.53;;;12.00;99.90;;;;;;4923197;29;20034;-76
2023/03/22 02:45:55;;;;;;;8.30;6.03;;;11.80;99.90;;;;;;4926312;29;20067;-76
2023/03/22 02:48:44;;;;;;;12.40;6.95;;;11.80;99.90;;;;;;4931319;29;20061;-76
2023/03/22 02:51:28;;;;;;;9.57;6.50;;;11.90;99.90;;;;;;4926810;29;20176;-76
2023/03/22 02:54:07;;;;;;;9.10;5.50;;;11.90;99.90;;;;;;4925841;29;20478;-76
2023/03/22 02:56:38;;;;;;;9.20;6.05;;;11.90;99.90;;;;;;4931856;29;20038;-75
2023/03/22 02:59:06;;;;;;;9.40;5.90;;;11.80;99.90;;;;;;4931236;29;20032;-77
2023/03/22 03:01:48;;;;;;;9.13;5.18;;;11.90;99.90;;;;;;4922020;29;20094;-76
2023/03/22 03:04:18;;;;;;;9.02;5.20;;;11.80;99.90;;;;;;4926461;29;20020;-76
2023/03/22 03:06:47;;;;;;;6.75;4.97;;;11.70;99.90;;;;;;4923493;29;20036;-76
2023/03/22 03:09:16;;;;;;;7.25;5.15;;;11.70;99.90;;;;;;4930840;28;20548;-76
2023/03/22 03:11:45;;;;;;;7.93;4.55;;;11.70;99.90;;;;;;4923043;29;20039;-76
2023/03/22 03:14:29;;;;;;;6.30;4.28;;;11.70;99.90;;;;;;4935507;29;20070;-76
2023/03/22 03:17:20;;;;;;;9.80;5.22;;;11.60;99.90;;;;;;4926266;29;20035;-76
2023/03/22 03:20:00;;;;;;;9.32;4.90;;;11.60;99.90;;;;;;4924788;29;20115;-76
2023/03/22 03:22:36;;;;;;;8.85;5.13;;;11.50;99.90;;;;;;4927154;29;20059;-76
2023/03/22 03:25:22;;;;;;;7.68;4.40;;;11.60;99.90;;;;;;4925833;29;20024;-77
2023/03/22 03:28:07;;;;;;;8.52;4.60;;;11.60;99.90;;;;;;4924072;29;20094;-76
2023/03/22 03:30:39;;;;;;;9.00;4.47;;;11.60;99.90;;;;;;4925702;29;20043;-76
2023/03/22 03:33:08;;;;;;;9.32;4.78;;;11.50;99.90;;;;;;4933688;29;20032;-76
2023/03/22 03:35:42;;;;;;;7.60;4.63;;;11.50;99.90;;;;;;4934876;29;20055;-76
2023/03/22 03:38:18;;;;;;;6.60;3.95;;;11.60;99.90;;;;;;4925295;29;20059;-76
2023/03/22 03:40:57;;;;;;;8.63;4.63;;;11.60;99.90;;;;;;4930016;29;20047;-76
2023/03/22 03:43:24;;;;;;;7.07;4.05;;;11.50;99.90;;;;;;4932479;29;20022;-76
2023/03/22 03:45:51;;;;;;;6.85;4.28;;;11.50;99.90;;;;;;4928560;29;20039;-76
2023/03/22 03:48:23;;;;;;;9.40;4.25;;;11.50;99.90;;;;;;4929532;29;20020;-76
2023/03/22 03:50:52;;;;;;;7.57;4.10;;;11.60;99.90;;;;;;4938783;29;20027;-76
2023/03/22 03:53:18;;;;;;;5.70;3.53;;;11.50;99.90;;;;;;4950381;28;20166;-76
2023/03/22 03:55:43;;;;;;;8.70;4.22;;;11.50;99.90;;;;;;4936432;29;20099;-76
2023/03/22 03:58:09;;;;;;;7.13;4.20;;;11.50;99.90;;;;;;4935643;29;20074;-75
2023/03/22 04:00:36;;;;;;;6.53;4.28;;;11.40;99.90;;;;;;4933361;29;20457;-76
2023/03/22 04:03:02;;;;;;;9.93;4.50;;;11.50;99.90;;;;;;4929297;29;20403;-76
2023/03/22 04:05:28;;;;;;;9.32;4.47;;;11.40;99.90;;;;;;4932245;29;20152;-76
2023/03/22 04:07:53;;;;;;;5.68;3.88;;;11.50;99.90;;;;;;4936168;29;20138;-76
2023/03/22 04:10:19;;;;;;;7.03;3.95;;;11.50;99.90;;;;;;4930213;29;20039;-76
2023/03/22 04:12:45;;;;;;;6.60;4.00;;;11.40;99.90;;;;;;4936770;29;20035;-75
2023/03/22 04:15:11;;;;;;;6.65;4.15;;;11.40;99.90;;;;;;4931342;29;20118;-76
2023/03/22 04:17:38;;;;;;;6.78;3.83;;;11.40;99.90;;;;;;4933125;29;20114;-76
2023/03/22 04:20:06;;;;;;;11.65;4.72;;;11.50;99.90;;;;;;4929564;29;20064;-76
2023/03/22 04:22:37;;;;;;;11.05;4.15;;;11.50;99.90;;;;;;4929433;29;20087;-76
2023/03/22 04:25:04;;;;;;;8.25;4.53;;;11.40;99.90;;;;;;4937058;29;20023;-76
2023/03/22 04:27:30;;;;;;;6.50;4.00;;;11.40;99.90;;;;;;4926032;28;20028;-76
2023/03/22 04:29:56;;;;;;;6.07;4.05;;;11.40;99.90;;;;;;4931918;29;20491;-76
2023/03/22 04:32:25;;;;;;;10.55;3.35;;;11.40;99.90;;;;;;4922930;29;20028;-77
2023/03/22 04:34:51;;;;;;;8.73;3.50;;;11.40;99.90;;;;;;4936613;29;20027;-76
2023/03/22 04:37:18;;;;;;;6.65;3.03;;;11.30;99.90;;;;;;4922842;29;20043;-77
2023/03/22 04:39:44;;;;;;;6.43;4.13;;;11.30;99.90;;;;;;4926240;29;20481;-77
2023/03/22 04:42:11;;;;;;;9.40;3.65;;;11.30;99.90;;;;;;4943408;28;20032;-76
2023/03/22 04:44:36;;;;;;;8.60;3.22;;;11.30;99.90;;;;;;4930737;29;20436;-77
2023/03/22 04:47:03;;;;;;;5.82;3.65;;;11.30;99.90;;;;;;4931556;29;20032;-76
2023/03/22 04:49:30;;;;;;;7.10;3.25;;;11.30;99.90;;;;;;4930608;29;20405;-76
2023/03/22 04:51:56;;;;;;;8.38;3.53;;;11.40;99.90;;;;;;4930365;28;20048;-76
2023/03/22 04:54:22;;;;;;;7.85;3.38;;;11.40;99.90;;;;;;4930853;29;20078;-76
2023/03/22 04:56:49;;;;;;;5.55;3.30;;;11.30;99.90;;;;;;4928206;29;20095;-76
2023/03/22 04:59:19;;;;;;;13.38;3.53;;;11.30;99.90;;;;;;4928075;29;20389;-76
2023/03/22 05:01:45;;;;;;;8.27;3.58;;;11.30;99.90;;;;;;4935704;29;20020;-76
2023/03/22 05:04:11;;;;;;;8.02;3.13;;;11.30;99.90;;;;;;4924408;29;20027;-76
2023/03/22 05:06:37;;;;;;;10.98;3.25;;;11.30;99.90;;;;;;4930396;29;20035;-76
2023/03/22 05:09:03;;;;;;;7.10;2.97;;;11.40;99.90;;;;;;4927125;29;20063;-75
2023/03/22 05:11:31;;;;;;;5.78;3.25;;;11.40;99.90;;;;;;4928809;29;20078;-76
2023/03/22 05:13:57;;;;;;;8.15;3.83;;;11.40;99.90;;;;;;4932645;29;20492;-76
2023/03/22 05:16:23;;;;;;;8.00;3.20;;;11.50;99.90;;;;;;4931899;29;20103;-76
2023/03/22 05:18:53;;;;;;;7.65;3.08;;;11.50;99.90;;;;;;4927300;29;20028;-76
2023/03/22 05:21:26;;;;;;;9.98;3.33;;;11.40;99.90;;;;;;4926209;29;20028;-76
2023/03/22 05:23:53;;;;;;;15.80;3.30;;;11.50;99.90;;;;;;4927172;29;20421;-76
2023/03/22 05:26:19;;;;;;;9.65;3.65;;;11.50;99.90;;;;;;4943578;28;20032;-76
2023/03/22 05:28:45;;;;;;;7.60;3.58;;;11.60;99.90;;;;;;4931025;29;20093;-76
2023/03/22 05:31:13;;;;;;;6.90;2.88;;;11.50;99.90;;;;;;4941436;28;20032;-76
2023/03/22 05:33:40;;;;;;;6.75;3.15;;;11.60;99.90;;;;;;4923131;29;20044;-76
2023/03/22 05:36:07;;;;;;;9.50;3.15;;;11.60;99.90;;;;;;4925564;29;20016;-76
2023/03/22 05:38:32;;;;;;;6.60;3.17;;;11.50;99.90;;;;;;4928730;29;20044;-75
2023/03/22 05:40:58;;;;;;;9.73;3.42;;;11.60;99.90;;;;;;4926747;29;20519;-76
2023/03/22 05:43:24;;;;;;;9.07;3.97;;;11.50;99.90;;;;;;4927607;29;20112;-76
2023/03/22 05:45:50;;;;;;;12.38;4.38;;;11.50;99.90;;;;;;4925820;29;20087;-76
2023/03/22 05:48:16;;;;;;;6.72;3.42;;;11.60;99.90;;;;;;4927342;29;20031;-76
2023/03/22 05:50:42;;;;;;;7.47;3.20;;;11.60;99.90;;;;;;4918331;29;20027;-76
2023/03/22 05:53:08;;;;;;;9.68;3.60;;;11.60;99.90;;;;;;4933324;29;20032;-76
2023/03/22 05:55:34;;;;;;;6.93;3.88;;;11.60;99.90;;;;;;4923050;28;20114;-75
2023/03/22 05:58:00;;;;;;;6.90;3.80;;;11.50;99.90;;;;;;4930481;29;20031;-75
2023/03/22 06:00:30;;;;;;;13.25;3.80;;;11.50;99.90;;;;;;4930140;29;20374;-76
2023/03/22 06:03:02;;;;;;;9.40;3.60;;;11.50;99.90;;;;;;4921515;29;20016;-77
2023/03/22 06:05:30;;;;;;;8.07;3.60;;;11.50;99.90;;;;;;4928131;29;20135;-77
2023/03/22 06:07:56;;;;;;;11.35;3.72;;;11.50;99.90;;;;;;4923499;29;20103;-76
2023/03/22 06:10:23;;;;;;;12.00;4.35;;;11.50;99.90;;;;;;4928572;29;20036;-77
2023/03/22 06:12:49;;;;;;;12.05;3.65;;;11.60;99.90;;;;;;4929919;29;20552;-76
2023/03/22 06:15:15;;;;;;;7.35;3.70;;;11.60;99.90;;;;;;4928855;29;20451;-76
2023/03/22 06:17:41;;;;;;;13.05;3.97;;;11.60;99.90;;;;;;4923918;29;20055;-75
2023/03/22 06:20:09;;;;;;;11.48;3.40;;;11.60;99.90;;;;;;4930552;29;20119;-76
2023/03/22 06:22:36;;;;;;;8.98;3.40;;;11.60;99.90;;;;;;4926103;29;20776;-76
2023/03/22 06:25:02;;;;;;;13.93;4.20;;;11.60;99.90;;;;;;4927199;29;20084;-76
2023/03/22 06:27:28;;;;;;;10.75;3.45;;;11.50;99.90;;;;;;4927458;29;20019;-76
2023/03/22 06:29:53;;;;;;;9.48;3.47;;;11.50;99.90;;;;;;4925061;29;20024;-76
2023/03/22 06:32:22;;;;;;;7.80;3.22;;;11.50;99.90;;;;;;4927512;29;20535;-77
2023/03/22 06:34:50;;;;;;;7.20;4.03;;;11.60;99.90;;;;;;4928343;29;20054;-76
2023/03/22 06:37:16;;;;;;;11.05;3.80;;;11.50;99.90;;;;;;4927270;29;20024;-76
2023/03/22 06:39:41;;;;;;;12.00;3.95;;;11.50;99.90;;;;;;4925200;29;20040;-76
2023/03/22 06:42:09;;;;;;;9.23;4.00;;;11.40;99.90;;;;;;4928789;29;20055;-75
2023/03/22 06:44:35;;;;;;;10.13;3.72;;;11.60;99.90;;;;;;4933115;29;20418;-76
2023/03/22 06:47:01;;;;;;;11.30;3.55;;;11.60;99.90;;;;;;4926735;29;20032;-77
2023/03/22 06:49:27;;;;;;;8.48;3.35;;;11.60;99.90;;;;;;4929784;29;20115;-76
2023/03/22 06:51:53;;;;;;;8.05;3.85;;;11.60;99.90;;;;;;4920511;29;20111;-76
2023/03/22 06:54:19;;;;;;;9.52;3.97;;;11.70;99.90;;;;;;4923849;29;20124;-75
2023/03/22 06:56:44;;;;;;;10.25;3.60;;;11.70;99.90;;;;;;4926547;29;20393;-76
2023/03/22 06:59:10;;;;;;;9.77;3.95;;;11.70;99.90;;;;;;4920774;29;20492;-77
2023/03/22 07:01:36;;;;;;;8.98;4.10;;;11.80;99.90;;;;;;4924002;29;20477;-77
2023/03/22 07:04:01;;;;;;;12.32;3.70;;;11.80;99.90;;;;;;4930623;29;20036;-77
2023/03/22 07:06:27;;;;;;;10.15;3.80;;;11.90;99.90;;;;;;4927459;29;20019;-78
2023/03/22 07:08:53;;;;;;;12.10;3.65;;;12.00;99.90;;;;;;4927669;29;20041;-78
2023/03/22 07:11:19;;;;;;;10.85;4.07;;;12.10;99.90;;;;;;4935770;29;20471;-78
2023/03/22 07:13:45;;;;;;;11.60;4.35;;;12.00;99.90;;;;;;4933953;28;20035;-78
2023/03/22 07:16:10;;;;;;;13.82;3.70;;;12.00;99.90;;;;;;4934138;29;20036;-78
2023/03/22 07:18:36;;;;;;;8.93;3.00;;;12.00;99.90;;;;;;4923203;29;20038;-79
2023/03/22 07:21:02;;;;;;;9.80;3.58;;;12.10;99.90;;;;;;4928974;29;20131;-75
2023/03/22 07:23:29;;;;;;;12.15;3.33;;;12.20;99.90;;;;;;4923160;28;20032;-76
2023/03/22 07:25:55;;;;;;;8.07;3.47;;;12.20;99.90;;;;;;4925387;29;20519;-76
2023/03/22 07:28:21;;;;;;;10.00;3.63;;;12.20;99.90;;;;;;4929957;29;20028;-75
2023/03/22 07:30:47;;;;;;;9.52;3.67;;;12.30;99.90;;;;;;4931749;29;20032;-76
2023/03/22 07:33:13;;;;;;;9.52;3.38;;;12.20;99.90;;;;;;4929416;29;20047;-77
2023/03/22 07:35:38;;;;;;;12.07;3.25;;;12.30;99.90;;;;;;4929297;29;20040;-76
2023/03/22 07:38:05;;;;;;;8.52;3.03;;;12.30;99.90;;;;;;4919371;29;20036;-75
2023/03/22 07:40:31;;;;;;;11.38;3.28;;;12.40;99.90;;;;;;4925180;29;20111;-77
2023/03/22 07:43:00;;;;;;;5.72;3.30;;;12.40;99.90;;;;;;4927493;29;20193;-76
2023/03/22 07:45:26;;;;;;;11.48;3.47;;;12.50;99.90;;;;;;4927653;29;20027;-77
2023/03/22 07:47:51;;;;;;;9.18;3.60;;;12.50;99.90;;;;;;4923720;29;20031;-76
2023/03/22 07:50:18;;;;;;;11.32;3.28;;;12.50;99.90;;;;;;4932541;29;20216;-77
2023/03/22 07:52:44;;;;;;;14.18;3.60;;;12.50;99.90;;;;;;4926540;29;20079;-76
2023/03/22 07:55:13;;;;;;;9.38;3.58;;;12.60;99.90;;;;;;4922517;29;20031;-77
2023/03/22 07:57:39;;;;;;;9.00;3.38;;;12.60;99.90;;;;;;4926235;29;20184;-78
2023/03/22 08:00:09;;;;;;;8.02;3.33;;;12.60;99.90;;;;;;4926316;29;20032;-77
2023/03/22 08:02:36;;;;;;;17.35;3.63;;;12.60;99.90;;;;;;4927680;29;20023;-77
2023/03/22 08:05:02;;;;;;;9.25;3.38;;;12.60;99.90;;;;;;4927433;29;20030;-77
2023/03/22 08:07:29;;;;;;;12.68;3.42;;;12.70;99.90;;;;;;4930082;29;20035;-77
2023/03/22 08:09:56;;;;;;;8.48;2.75;;;12.90;99.90;;;;;;4926188;29;20035;-77
2023/03/22 08:12:21;;;;;;;12.55;3.15;;;13.20;99.90;;;;;;4932564;29;20098;-77
2023/03/22 08:14:49;;;;;;;7.40;3.45;;;13.40;99.90;;;;;;4932577;29;20063;-77
2023/03/22 08:17:17;;;;;;;9.05;2.72;;;13.40;99.90;;;;;;4933669;29;20110;-76
2023/03/22 08:19:42;;;;;;;9.40;2.58;;;13.40;99.90;;;;;;4936454;29;20491;-76
2023/03/22 08:22:08;;;;;;;8.90;2.70;;;13.30;99.90;;;;;;4929379;29;20021;-81
2023/03/22 08:24:34;;;;;;;12.18;2.95;;;13.20;99.90;;;;;;4928338;29;20031;-81
2023/03/22 08:27:00;;;;;;;10.32;3.05;;;13.10;99.90;;;;;;4927720;29;20496;-82
2023/03/22 08:29:26;;;;;;;9.57;3.35;;;13.20;99.90;;;;;;4930539;29;20027;-82
2023/03/22 08:31:52;;;;;;;15.18;2.88;;;13.30;99.90;;;;;;4933186;29;20027;-76
2023/03/22 08:34:18;;;;;;;7.13;2.50;;;13.30;99.90;;;;;;4931115;29;20042;-79
2023/03/22 08:36:45;;;;;;;8.27;3.30;;;13.30;99.90;;;;;;4937849;29;20023;-81
2023/03/22 08:39:10;;;;;;;8.65;2.83;;;13.40;99.90;;;;;;4933888;29;20052;-81
2023/03/22 08:41:37;;;;;;;10.85;2.70;;;13.50;99.90;;;;;;4935299;29;20595;-81
2023/03/22 08:44:03;;;;;;;10.02;2.65;;;13.50;99.90;;;;;;4932358;29;20043;-79
2023/03/22 08:46:28;;;;;;;11.85;2.67;;;13.60;99.90;;;;;;4937349;29;20415;-82
2023/03/22 08:48:56;;;;;;;6.80;2.50;;;13.60;99.90;;;;;;4931115;29;20036;-81
2023/03/22 08:51:22;;;;;;;13.80;2.85;;;13.70;99.90;;;;;;4924772;29;20031;-80
2023/03/22 08:53:48;;;;;;;6.97;2.47;;;13.70;99.90;;;;;;4928022;29;20044;-81
2023/03/22 08:56:15;;;;;;;11.02;2.50;;;13.70;99.90;;;;;;4928244;29;20024;-80
2023/03/22 08:58:45;;;;;;;6.97;2.95;;;13.70;99.90;;;;;;4929124;29;20027;-80
2023/03/22 09:01:12;;;;;;;10.85;2.58;;;13.60;99.90;;;;;;4933436;29;20135;-81
2023/03/22 09:03:39;;;;;;;8.73;2.63;;;13.70;99.90;;;;;;4926189;29;20032;-82
2023/03/22 09:06:05;;;;;;;9.48;2.70;;;13.80;99.90;;;;;;4933170;29;20034;-81
2023/03/22 09:08:32;;;;;;;8.52;2.38;;;13.90;99.90;;;;;;4930833;29;20028;-80
2023/03/22 09:10:58;;;;;;;11.07;2.90;;;14.00;99.90;;;;;;4934701;29;20082;-80
2023/03/22 09:13:24;;;;;;;11.35;3.08;;;14.20;99.90;;;;;;4934988;29;20044;-81
2023/03/22 09:15:51;;;;;;;9.68;2.47;;;14.10;99.90;;;;;;4923454;29;20179;-81
2023/03/22 09:18:17;;;;;;;13.73;2.95;;;14.10;99.90;;;;;;4907617;29;20526;-79
2023/03/22 09:20:44;;;;;;;9.18;2.35;;;14.10;99.90;;;;;;4930846;29;20091;-80
2023/03/22 09:23:11;;;;;;;7.75;2.25;;;14.20;99.90;;;;;;4929489;29;20484;-82
2023/03/22 09:25:37;;;;;;;6.63;2.40;;;14.30;99.90;;;;;;4925123;29;20035;-80
2023/03/22 09:28:03;;;;;;;8.02;2.33;;;14.40;99.90;;;;;;4929699;29;20035;-81
2023/03/22 09:30:29;;;;;;;9.48;2.50;;;14.40;99.90;;;;;;4931239;29;20090;-81
2023/03/22 09:32:55;;;;;;;8.40;2.33;;;14.40;99.90;;;;;;4937922;28;20425;-82
2023/03/22 09:35:21;;;;;;;6.97;2.13;;;14.40;99.90;;;;;;4925022;29;20062;-80
2023/03/22 09:37:51;;;;;;;15.52;2.10;;;14.40;99.90;;;;;;4927995;29;20106;-81
2023/03/22 09:40:18;;;;;;;7.03;1.98;;;14.40;99.90;;;;;;4928465;29;20028;-80
2023/03/22 09:42:50;;;;;;;10.32;2.33;;;14.30;99.90;;;;;;4928834;29;20551;-81
2023/03/22 09:45:24;;;;;;;9.00;2.38;;;14.40;99.90;;;;;;4927440;29;20020;-81
2023/03/22 09:47:54;;;;;;;9.02;2.13;;;14.50;99.90;;;;;;4928695;29;20020;-81
2023/03/22 09:50:30;;;;;;;9.40;2.25;;;14.60;99.90;;;;;;4927386;29;20455;-80
2023/03/22 09:52:55;;;;;;;59.03;45.67;;;14.50;99.90;;;;;;4929086;29;20024;-83
2023/03/22 09:55:27;;;;;;;8.38;3.03;;;14.70;99.90;;;;;;4927683;29;20093;-83
2023/03/22 09:58:31;;;;;;;11.43;2.65;;;14.80;99.90;;;;;;4927897;29;20422;-81
2023/03/22 10:01:01;;;;;;;9.90;3.17;;;14.80;99.90;;;;;;4927732;29;20015;-83
2023/03/22 10:03:44;;;;;;;7.35;2.15;;;14.70;99.90;;;;;;4928077;29;20055;-82
2023/03/22 10:06:18;;;;;;;8.02;2.08;;;14.70;99.90;;;;;;4924208;29;20094;-82
2023/03/22 10:09:03;;;;;;;6.68;1.80;;;14.70;99.90;;;;;;4929195;29;20375;-80
2023/03/22 10:11:37;;;;;;;5.97;1.60;;;14.60;99.90;;;;;;4924234;29;20031;-82
2023/03/22 10:14:19;;;;;;;7.13;1.80;;;14.60;99.90;;;;;;4928134;29;20032;-81
2023/03/22 10:16:46;;;;;;;9.53;1.80;;;14.40;99.90;;;;;;4921138;29;20023;-82
2023/03/22 10:19:21;;;;;;;10.52;1.73;;;14.40;99.90;;;;;;4926006;29;20103;-81
2023/03/22 10:21:50;;;;;;;13.70;3.00;;;14.40;99.90;;;;;;4925097;29;20031;-81
2023/03/22 10:24:21;;;;;;;5.80;1.60;;;14.50;99.90;;;;;;4923345;29;20024;-82
2023/03/22 10:26:50;;;;;;;8.60;2.10;;;14.50;99.90;;;;;;4924876;29;20019;-82
2023/03/22 10:29:26;;;;;;;6.50;1.88;;;14.40;99.90;;;;;;4926627;29;20536;-82
2023/03/22 10:31:53;;;;;;;7.50;1.70;;;14.40;99.90;;;;;;4924795;29;20047;-79
2023/03/22 10:34:19;;;;;;;9.25;2.17;;;14.50;99.90;;;;;;4927744;29;20051;-82
2023/03/22 10:36:46;;;;;;;9.80;2.13;;;14.40;99.90;;;;;;4916236;29;20023;-82
2023/03/22 10:39:20;;;;;;;19.48;3.20;;;14.50;99.90;;;;;;4927185;29;20035;-81
2023/03/22 10:41:46;;;;;;;6.00;2.03;;;14.50;99.90;;;;;;4927238;29;20040;-81
2023/03/22 10:44:18;;;;;;;8.50;2.20;;;14.50;99.90;;;;;;4926632;29;20107;-82
2023/03/22 10:46:45;;;;;;;18.13;2.70;;;14.30;99.90;;;;;;4928872;29;20036;-80
2023/03/22 10:49:23;;;;;;;8.63;2.35;;;14.30;99.90;;;;;;4926902;29;20516;-80
2023/03/22 10:51:52;;;;;;;5.93;2.40;;;14.20;99.90;;;;;;4927247;29;20030;-81
2023/03/22 10:54:20;;;;;;;7.10;2.20;;;14.20;99.90;;;;;;4928262;28;20031;-82
2023/03/22 10:56:46;;;;;;;11.57;2.95;;;14.30;99.90;;;;;;4924631;29;20542;-82
2023/03/22 10:59:46;;;;;;;8.27;2.28;;;14.30;99.90;;;;;;4925644;29;20065;-83
2023/03/22 11:02:19;;;;;;;8.57;1.88;;;14.30;99.90;;;;;;4927349;29;20067;-81
2023/03/22 11:04:51;;;;;;;8.93;2.17;;;14.30;99.90;;;;;;4923291;29;20028;-81
2023/03/22 11:07:42;;;;;;;4.90;1.55;;;14.40;99.90;;;;;;4926075;29;20402;-82
2023/03/22 11:10:07;;;;;;;7.05;1.80;;;14.40;99.90;;;;;;4923383;29;20031;-82
2023/03/22 11:12:51;;;;;;;7.30;1.70;;;14.40;99.90;;;;;;4927895;29;20366;-82
2023/03/22 11:15:38;;;;;;;7.25;2.22;;;14.30;99.90;;;;;;4930245;29;20552;-79
2023/03/22 11:18:13;;;;;;;9.32;2.08;;;14.20;99.90;;;;;;4926913;29;20087;-81
2023/03/22 11:20:40;;;;;;;6.95;1.52;;;14.20;99.90;;;;;;4928241;29;20496;-83
2023/03/22 11:23:10;;;;;;;6.90;2.42;;;14.20;99.90;;;;;;4928902;29;20421;-80
2023/03/22 11:25:43;;;;;;;10.70;1.92;;;14.10;99.90;;;;;;4928728;29;20027;-82
2023/03/22 11:28:20;;;;;;;7.00;1.67;;;14.10;99.90;;;;;;4926377;29;20023;-82
2023/03/22 11:31:04;;;;;;;8.02;2.05;;;14.20;99.90;;;;;;4928625;29;20032;-82
2023/03/22 11:33:31;;;;;;;9.02;1.85;;;14.20;99.90;;;;;;4922796;29;20035;-80
2023/03/22 11:36:02;;;;;;;15.52;2.65;;;14.20;99.90;;;;;;4931113;29;20051;-82
2023/03/22 11:38:36;;;;;;;11.25;2.03;;;14.20;99.90;;;;;;4924678;29;20969;-82
2023/03/22 11:41:22;;;;;;;12.30;2.60;;;14.20;99.90;;;;;;4924827;29;20090;-80
2023/03/22 11:43:53;;;;;;;6.65;2.20;;;14.00;99.90;;;;;;4924786;29;20059;-78
2023/03/22 11:46:19;;;;;;;8.63;2.65;;;14.00;99.90;;;;;;4918710;29;20031;-79
2023/03/22 11:48:47;;;;;;;11.70;2.75;;;14.10;99.90;;;;;;4925897;29;20035;-79
2023/03/22 11:51:15;;;;;;;7.22;2.15;;;14.10;99.90;;;;;;4926808;29;20027;-79
2023/03/22 11:53:45;;;;;;;6.07;2.33;;;14.00;99.90;;;;;;4927209;29;20038;-80
2023/03/22 11:56:16;;;;;;;6.10;1.92;;;14.10;99.90;;;;;;4926657;29;20051;-80
2023/03/22 11:58:49;;;;;;;5.78;1.67;;;14.10;99.90;;;;;;4928067;29;20103;-80
2023/03/22 12:01:31;;;;;;;7.90;2.17;;;14.20;99.90;;;;;;4926895;29;20051;-80
2023/03/22 12:04:00;;;;;;;4.93;1.90;;;14.20;99.90;;;;;;4927065;29;20060;-81
2023/03/22 12:06:35;;;;;;;5.85;1.67;;;14.30;99.90;;;;;;4926106;29;20027;-81
2023/03/22 12:09:09;;;;;;;6.85;2.00;;;14.30;99.90;;;;;;4929733;29;20040;-80
2023/03/22 12:11:44;;;;;;;6.90;1.88;;;14.20;99.90;;;;;;4927394;29;20024;-80
2023/03/22 12:14:21;;;;;;;7.05;2.38;;;14.20;99.90;;;;;;4927666;29;20039;-80
2023/03/22 12:17:00;;;;;;;10.00;2.40;;;14.30;99.90;;;;;;4927601;29;20050;-81
2023/03/22 12:19:51;;;;;;;7.10;2.13;;;14.30;99.90;;;;;;4926654;29;20032;-81
2023/03/22 12:22:26;;;;;;;8.43;2.85;;;14.50;99.90;;;;;;4919394;29;20053;-82
2023/03/22 12:24:52;;;;;;;8.93;2.20;;;14.40;99.90;;;;;;4925226;29;20028;-82
2023/03/22 12:27:25;;;;;;;7.43;1.95;;;14.40;99.90;;;;;;4925830;29;20117;-81
2023/03/22 12:29:58;;;;;;;6.75;2.13;;;14.40;99.90;;;;;;4926047;29;20027;-80
2023/03/22 12:32:28;;;;;;;7.15;2.22;;;14.50;99.90;;;;;;4924185;29;20062;-80
2023/03/22 12:34:56;;;;;;;5.82;1.95;;;14.50;99.90;;;;;;4926692;29;20489;-80
2023/03/22 12:37:33;;;;;;;11.68;2.22;;;14.60;99.90;;;;;;4925829;29;20547;-78
2023/03/22 12:40:25;;;;;;;8.85;1.80;;;14.60;99.90;;;;;;4927461;29;20043;-79
2023/03/22 12:43:23;;;;;;;10.10;2.25;;;14.60;99.90;;;;;;4922737;29;20028;-79
2023/03/22 12:45:53;;;;;;;10.60;2.05;;;14.60;99.90;;;;;;4923796;29;20060;-79
2023/03/22 12:48:44;;;;;;;7.65;1.98;;;14.70;99.90;;;;;;4925681;29;20749;-79
2023/03/22 12:51:14;;;;;;;6.38;2.47;;;14.80;99.90;;;;;;4926376;29;20460;-80
2023/03/22 12:53:55;;;;;;;6.50;1.90;;;14.70;99.90;;;;;;4925506;29;20039;-79
2023/03/22 12:56:26;;;;;;;4.82;1.70;;;14.70;99.90;;;;;;4928582;29;20031;-78